Southbridge, Massachusetts
Current Conditions -  °F | °C
As of 8:54 AM on Saturday 25 Oct 2014 (Local Time) from KORH Reporting Station
Clear Clear  
Wind Chill: 41°   Ceiling: Unl
Heat Index: 46°   Visibility: 10mi
Dew Point: 39°   Wind: 10mph
Humidity: 76%   Direction: 270°W
Pressure: 29.77"   Gusts: NA
Location:  42.07°N, 72.03°W
Report Text: KORH 251254Z 27009KT 10SM CLR 08/04 A2977 RMK AO2 SLP086 T00780039 $
Loading
Personal Weather Stations






























Interactive Weather Map
Tropical Storm Tracking
New forecast layout! Learn more

10-Day Weather Forecast

Advertisements
Track Severe Weather on mobile